createdAt,value
2019-05-06T00:30:06.683Z,7.17
2019-05-06T00:32:34.935Z,10.57
2019-05-06T00:35:04.549Z,9.98
2019-05-06T00:37:34.764Z,10.20
2019-05-06T00:40:14.944Z,10.13
2019-05-06T00:42:59.357Z,9.80
2019-05-06T00:45:27.578Z,10.10
2019-05-06T00:47:55.701Z,9.60
2019-05-06T00:50:24.020Z,9.65
2019-05-06T00:52:53.952Z,9.78
2019-05-06T00:55:24.055Z,9.80
2019-05-06T00:57:54.315Z,10.03
2019-05-06T01:00:27.837Z,10.85
2019-05-06T01:02:55.951Z,10.70
2019-05-06T01:05:24.496Z,11.65
2019-05-06T01:07:54.736Z,10.72
2019-05-06T01:10:23.811Z,10.75
2019-05-06T01:12:58.237Z,10.43
2019-05-06T01:15:27.116Z,11.03
2019-05-06T01:17:55.169Z,10.95
2019-05-06T01:20:24.742Z,10.73
2019-05-06T01:22:54.439Z,8.30
2019-05-06T22:58:17.923Z,12.53
2019-05-06T23:00:50.097Z,12.83
2019-05-06T23:03:18.910Z,13.07
2019-05-06T23:05:47.014Z,17.60
2019-05-06T23:08:15.128Z,17.30
2019-05-06T23:10:43.191Z,16.70
2019-05-06T23:13:12.427Z,16.10
2019-05-06T23:15:42.073Z,15.88
2019-05-06T23:18:10.374Z,16.65
2019-05-06T23:20:38.520Z,16.45
2019-05-06T23:23:07.712Z,17.15
2019-05-06T23:25:35.836Z,17.32
2019-05-06T23:28:04.352Z,18.48
2019-05-06T23:30:33.392Z,16.20
2019-05-06T23:33:01.784Z,16.40
2019-05-06T23:35:30.296Z,16.48
2019-05-06T23:38:16.167Z,16.80
2019-05-06T23:41:02.119Z,17.03
2019-05-06T23:43:48.068Z,18.07
2019-05-06T23:46:34.176Z,17.35
2019-05-06T23:49:22.198Z,17.57
2019-05-06T23:52:07.897Z,18.62
2019-05-06T23:54:54.255Z,18.48
2019-05-06T23:57:22.919Z,16.13
2019-05-06T23:59:51.887Z,16.12
